createdAt,value
2019-04-25T00:00:51.418Z,99.90
2019-04-25T00:03:25.801Z,99.90
2019-04-25T00:05:58.529Z,99.90
2019-04-25T00:08:31.202Z,99.90
2019-04-25T00:11:03.831Z,99.90
2019-04-25T00:13:38.098Z,99.90
2019-04-25T00:16:11.637Z,99.90
2019-04-25T00:18:43.128Z,99.90
2019-04-25T00:21:22.114Z,99.90
2019-04-25T00:23:58.634Z,99.90
2019-04-25T00:26:43.836Z,99.90
2019-04-25T00:29:16.056Z,99.90
2019-04-25T00:31:47.910Z,99.90
2019-04-25T00:34:21.461Z,99.90
2019-04-25T00:36:53.176Z,99.90
2019-04-25T00:39:24.867Z,99.90
2019-04-25T00:41:56.775Z,99.90
2019-04-25T00:44:28.345Z,99.90
2019-04-25T00:46:59.787Z,99.90
2019-04-25T00:49:32.202Z,99.90
2019-04-25T00:52:04.325Z,99.90
2019-04-25T00:54:35.859Z,99.90
2019-04-25T00:57:08.883Z,99.90
2019-04-25T00:59:46.884Z,99.90
2019-04-25T01:02:24.314Z,99.90
2019-04-25T01:04:55.904Z,99.90
2019-04-25T01:07:28.482Z,99.90
2019-04-25T01:09:59.796Z,99.90
2019-04-25T01:12:32.306Z,99.90
2019-04-25T01:15:05.345Z,99.90
2019-04-25T01:17:36.765Z,99.90
2019-04-25T01:20:09.558Z,99.90
2019-04-25T01:22:43.990Z,99.90
2019-04-25T01:25:15.545Z,99.90
2019-04-25T01:27:47.692Z,99.90
2019-04-25T01:30:20.927Z,99.90
2019-04-25T01:32:54.561Z,99.90
2019-04-25T01:35:45.087Z,99.90
2019-04-25T01:38:23.825Z,99.90
2019-04-25T01:41:08.233Z,99.90
2019-04-25T01:43:47.391Z,99.90
2019-04-25T01:46:20.538Z,99.90
2019-04-25T01:48:54.493Z,99.90
2019-04-25T01:51:26.806Z,99.90
2019-04-25T01:53:58.777Z,99.90
2019-04-25T01:56:33.160Z,99.90
2019-04-25T01:59:06.082Z,99.90
2019-04-25T02:01:39.081Z,99.90
2019-04-25T02:04:10.599Z,99.90
2019-04-25T02:06:43.026Z,99.90
2019-04-25T02:09:17.039Z,99.90
2019-04-25T02:11:54.780Z,99.90
2019-04-25T02:14:27.803Z,99.90
2019-04-25T02:17:00.358Z,99.90
2019-04-25T02:19:33.911Z,99.90
2019-04-25T02:22:06.380Z,99.90
2019-04-25T02:24:37.662Z,99.90
2019-04-25T02:27:09.404Z,99.90
2019-04-25T02:29:40.692Z,99.90
2019-04-25T02:32:14.949Z,99.90
2019-04-25T02:34:46.351Z,99.90
2019-04-25T02:37:18.123Z,99.90
2019-04-25T02:39:49.876Z,99.90
2019-04-25T02:42:24.663Z,99.90
2019-04-25T02:45:08.218Z,99.90
2019-04-25T02:48:00.077Z,99.90
2019-04-25T02:50:40.305Z,99.90
2019-04-25T02:53:30.613Z,99.90
2019-04-25T02:56:05.005Z,99.90
2019-04-25T02:58:36.486Z,99.90
2019-04-25T03:01:17.975Z,99.90
2019-04-25T03:03:44.970Z,99.90
2019-04-25T03:06:15.974Z,99.90
2019-04-25T03:08:48.082Z,99.90
2019-04-25T03:11:19.433Z,99.90
2019-04-25T03:13:51.430Z,99.90
2019-04-25T03:16:25.158Z,99.90
2019-04-25T03:19:24.376Z,99.90
2019-04-25T03:21:55.951Z,99.90
2019-04-25T03:24:27.452Z,99.90
2019-04-25T03:26:59.525Z,99.90
2019-04-25T03:29:31.188Z,99.90
2019-04-25T03:32:09.073Z,99.90
2019-04-25T03:34:37.147Z,99.90
2019-04-25T03:37:09.402Z,99.90
2019-04-25T03:39:40.830Z,99.90
2019-04-25T03:42:14.027Z,99.90
2019-04-25T03:44:45.577Z,99.90
2019-04-25T03:47:16.957Z,99.90
2019-04-25T03:49:48.356Z,99.90
2019-04-25T03:52:21.018Z,99.90
2019-04-25T03:54:53.417Z,99.90
2019-04-25T03:57:25.470Z,99.90
2019-04-25T03:59:56.812Z,99.90
2019-04-25T04:02:28.229Z,99.90
2019-04-25T04:05:00.774Z,99.90
2019-04-25T04:07:33.700Z,99.90
2019-04-25T04:10:05.774Z,99.90
2019-04-25T04:12:39.047Z,99.90
2019-04-25T04:15:11.151Z,99.90
2019-04-25T04:17:48.703Z,99.90
2019-04-25T04:20:40.081Z,99.90
2019-04-25T04:23:20.186Z,99.90
2019-04-25T04:25:51.455Z,99.90
2019-04-25T04:28:23.655Z,99.90
2019-04-25T04:30:55.044Z,99.90
2019-04-25T04:33:32.270Z,99.90
2019-04-25T04:35:59.942Z,99.90
2019-04-25T04:38:31.471Z,99.90
2019-04-25T04:41:03.982Z,99.90
2019-04-25T04:43:35.446Z,99.90
2019-04-25T04:46:07.914Z,99.90
2019-04-25T04:48:40.031Z,99.90
2019-04-25T04:51:11.422Z,99.90
2019-04-25T04:53:44.889Z,99.90
2019-04-25T04:56:16.777Z,99.90
2019-04-25T04:58:49.657Z,99.90
2019-04-25T05:01:24.373Z,99.90
2019-04-25T05:04:12.512Z,99.90
2019-04-25T05:07:06.478Z,99.90
2019-04-25T05:09:38.778Z,99.90
2019-04-25T05:12:11.513Z,99.90
2019-04-25T05:14:43.670Z,99.90
2019-04-25T05:17:16.529Z,99.90
2019-04-25T05:19:47.852Z,99.90
2019-04-25T05:22:20.434Z,99.90
2019-04-25T05:24:53.545Z,99.90
2019-04-25T05:27:35.743Z,99.90
2019-04-25T05:29:58.089Z,99.90
2019-04-25T05:32:29.761Z,99.90
2019-04-25T05:35:03.400Z,99.90
2019-04-25T05:37:35.595Z,99.90
2019-04-25T05:40:07.783Z,99.90
2019-04-25T05:42:50.436Z,99.90
2019-04-25T05:45:24.684Z,99.90
2019-04-25T05:47:58.729Z,98.20
2019-04-25T05:50:30.028Z,96.20
2019-04-25T05:53:01.909Z,94.90
2019-04-25T05:55:34.372Z,94.70
2019-04-25T05:58:06.634Z,93.90
2019-04-25T06:00:37.924Z,94.10
2019-04-25T06:03:09.765Z,94.40
2019-04-25T06:05:43.320Z,95.50
2019-04-25T06:08:19.389Z,96.40
2019-04-25T06:11:26.181Z,98.10
2019-04-25T06:14:06.915Z,99.90
2019-04-25T06:16:39.815Z,99.90
2019-04-25T06:19:39.145Z,99.90
2019-04-25T06:22:15.745Z,99.90
2019-04-25T06:24:55.471Z,99.90
2019-04-25T06:27:35.239Z,99.90
2019-04-25T06:30:27.572Z,99.90
2019-04-25T06:32:58.952Z,99.90
2019-04-25T06:35:30.346Z,99.90
2019-04-25T06:38:03.581Z,99.90
2019-04-25T06:40:37.610Z,99.90
2019-04-25T06:43:09.265Z,99.90
2019-04-25T06:46:00.390Z,99.90
2019-04-25T06:49:05.933Z,99.90
2019-04-25T06:51:50.787Z,99.90
2019-04-25T06:54:25.272Z,99.90
2019-04-25T06:56:55.705Z,99.90
2019-04-25T06:59:27.936Z,99.90
2019-04-25T07:02:00.323Z,99.90
2019-04-25T07:04:31.694Z,99.90
2019-04-25T07:07:10.588Z,99.90
2019-04-25T07:09:36.320Z,99.90
2019-04-25T07:12:07.854Z,99.90
2019-04-25T07:14:39.239Z,99.90
2019-04-25T07:17:11.048Z,99.90
2019-04-25T07:19:44.033Z,99.90
2019-04-25T07:22:18.553Z,99.90
2019-04-25T07:24:49.944Z,99.90
2019-04-25T07:27:53.717Z,99.90
2019-04-25T07:30:50.192Z,99.90
2019-04-25T07:33:23.317Z,99.90
2019-04-25T07:35:57.008Z,99.90
2019-04-25T07:38:29.128Z,99.90
2019-04-25T07:41:01.336Z,99.90
2019-04-25T07:43:35.393Z,99.90
2019-04-25T07:46:08.156Z,99.90
2019-04-25T07:48:40.478Z,99.90
2019-04-25T07:51:16.157Z,99.90
2019-04-25T07:53:45.304Z,99.90
2019-04-25T07:56:16.746Z,99.90
2019-04-25T07:58:52.470Z,99.90
2019-04-25T08:01:23.634Z,99.90
2019-04-25T08:03:56.527Z,99.90
2019-04-25T08:06:27.915Z,99.90
2019-04-25T08:08:59.248Z,99.90
2019-04-25T08:11:32.000Z,99.90
2019-04-25T08:14:16.477Z,99.90
2019-04-25T08:16:51.571Z,99.90
2019-04-25T08:19:26.583Z,99.90
2019-04-25T08:22:00.514Z,99.90
2019-04-25T08:28:19.729Z,99.90
2019-04-25T08:30:51.790Z,99.90
2019-04-25T08:33:25.686Z,99.90
2019-04-25T08:36:08.194Z,99.90
2019-04-25T08:38:31.417Z,99.90
2019-04-25T08:41:04.121Z,99.90
2019-04-25T08:43:39.145Z,99.90
2019-04-25T08:46:11.313Z,99.90
2019-04-25T08:49:02.238Z,99.90
2019-04-25T08:51:36.101Z,99.90
2019-04-25T08:54:25.715Z,99.90
2019-04-25T08:56:58.139Z,99.90
2019-04-25T08:59:52.725Z,99.90
2019-04-25T09:02:45.631Z,99.90
2019-04-25T09:05:20.973Z,99.90
2019-04-25T09:07:52.206Z,99.90
2019-04-25T09:10:23.757Z,99.90
2019-04-25T09:12:55.308Z,99.90
2019-04-25T09:15:28.553Z,99.90
2019-04-25T09:18:01.328Z,99.90
2019-04-25T09:20:34.676Z,99.90
2019-04-25T09:23:06.577Z,99.90
2019-04-25T09:25:38.652Z,99.90
2019-04-25T09:28:10.439Z,99.90
2019-04-25T09:30:42.987Z,99.90
2019-04-25T09:33:15.602Z,99.90
2019-04-25T09:35:47.527Z,99.90
2019-04-25T09:38:20.719Z,99.90
2019-04-25T09:40:54.102Z,99.90
2019-04-25T09:43:29.564Z,99.90
2019-04-25T09:46:09.396Z,99.90
2019-04-25T09:48:46.786Z,99.90
2019-04-25T09:51:26.605Z,99.90
2019-04-25T09:54:05.158Z,99.90
2019-04-25T09:56:40.938Z,99.90
2019-04-25T09:59:26.517Z,99.90
2019-04-25T10:01:50.299Z,99.90
2019-04-25T10:04:22.997Z,99.90
2019-04-25T10:06:56.712Z,99.90
2019-04-25T10:09:28.856Z,99.90
2019-04-25T10:12:00.477Z,99.90
2019-04-25T10:14:50.200Z,99.90
2019-04-25T10:17:21.617Z,99.90
2019-04-25T10:19:53.353Z,99.90
2019-04-25T10:22:25.752Z,99.90
2019-04-25T10:25:00.821Z,99.90
2019-04-25T10:27:38.290Z,99.90
2019-04-25T10:30:17.820Z,99.90
2019-04-25T10:32:48.048Z,99.90
2019-04-25T10:35:21.692Z,99.90
2019-04-25T10:37:55.012Z,99.90
2019-04-25T10:40:29.324Z,99.90
2019-04-25T10:43:01.636Z,99.90
2019-04-25T10:45:34.079Z,99.90
2019-04-25T10:48:06.673Z,99.90
2019-04-25T10:50:41.662Z,99.90
2019-04-25T10:53:13.213Z,99.90
2019-04-25T10:55:45.536Z,99.90
2019-04-25T10:58:16.930Z,99.90
2019-04-25T11:00:51.430Z,99.90
2019-04-25T11:03:39.804Z,99.90
2019-04-25T11:06:14.080Z,99.90
2019-04-25T11:08:46.980Z,99.90
2019-04-25T11:11:20.076Z,99.90
2019-04-25T11:13:55.575Z,99.90
2019-04-25T11:16:28.537Z,99.90
2019-04-25T11:19:00.151Z,99.90
2019-04-25T11:21:33.300Z,99.90
2019-04-25T11:24:05.173Z,99.90
2019-04-25T11:26:38.265Z,99.90
2019-04-25T11:29:10.394Z,99.90
2019-04-25T11:31:47.363Z,99.90
2019-04-25T11:34:20.726Z,99.90
2019-04-25T11:36:52.617Z,99.90
2019-04-25T11:39:48.699Z,99.90
2019-04-25T11:42:23.223Z,99.90
2019-04-25T11:44:56.260Z,99.90
2019-04-25T11:47:27.566Z,99.90
2019-04-25T11:49:59.579Z,99.90
2019-04-25T11:52:31.086Z,99.90
2019-04-25T11:55:04.306Z,99.90
2019-04-25T11:57:38.590Z,99.90
2019-04-25T12:00:21.590Z,99.90
2019-04-25T12:02:45.428Z,99.90
2019-04-25T12:05:19.743Z,99.90
2019-04-25T12:07:51.090Z,99.90
2019-04-25T12:10:24.467Z,99.90
2019-04-25T12:12:57.861Z,99.90
2019-04-25T12:15:29.565Z,99.90
2019-04-25T12:18:04.569Z,99.90
2019-04-25T12:20:36.532Z,99.90
2019-04-25T12:23:10.553Z,99.90
2019-04-25T12:25:44.262Z,99.90
2019-04-25T12:28:16.592Z,99.90
2019-04-25T12:30:49.963Z,99.90
2019-04-25T12:33:21.729Z,99.90
2019-04-25T12:35:54.193Z,99.90
2019-04-25T12:38:27.730Z,99.90
2019-04-25T12:41:01.657Z,99.90
2019-04-25T12:43:35.818Z,99.90
2019-04-25T12:46:19.183Z,99.90
2019-04-25T12:48:53.667Z,99.90
2019-04-25T12:51:26.203Z,99.90
2019-04-25T12:53:58.433Z,99.90
2019-04-25T12:56:31.100Z,99.90
2019-04-25T12:59:04.618Z,99.90
2019-04-25T13:01:37.798Z,99.90
2019-04-25T13:04:09.366Z,99.90
2019-04-25T13:06:40.856Z,99.90
2019-04-25T13:09:13.350Z,99.90
2019-04-25T13:11:45.008Z,99.90
2019-04-25T13:14:17.512Z,99.90
2019-04-25T13:16:48.856Z,99.90
2019-04-25T13:19:24.144Z,99.90
2019-04-25T13:21:54.430Z,99.90
2019-04-25T13:24:25.812Z,99.90
2019-04-25T13:27:06.144Z,99.90
2019-04-25T13:29:54.358Z,99.90
2019-04-25T13:32:41.865Z,99.90
2019-04-25T13:35:23.659Z,99.90
2019-04-25T13:37:55.542Z,99.90
2019-04-25T13:40:28.479Z,99.90
2019-04-25T13:43:00.150Z,99.90
2019-04-25T13:45:32.452Z,99.90
2019-04-25T13:48:05.060Z,99.90
2019-04-25T13:50:37.132Z,99.90
2019-04-25T13:53:09.290Z,99.90
2019-04-25T13:58:21.033Z,99.90
2019-04-25T14:00:54.291Z,99.90
2019-04-25T14:03:25.889Z,99.90
2019-04-25T14:05:58.393Z,99.90
2019-04-25T14:08:29.853Z,99.90
2019-04-25T14:11:01.499Z,99.90
2019-04-25T14:13:35.039Z,99.90
2019-04-25T14:16:22.549Z,99.90
2019-04-25T14:19:21.872Z,99.90
2019-04-25T14:21:57.437Z,99.90
2019-04-25T14:24:32.024Z,99.90
2019-04-25T14:27:04.871Z,99.90
2019-04-25T14:29:37.618Z,99.90
2019-04-25T14:32:10.036Z,99.90
2019-04-25T14:34:43.392Z,99.90
2019-04-25T14:37:14.866Z,99.90
2019-04-25T14:39:46.716Z,99.90
2019-04-25T14:42:18.250Z,99.90
2019-04-25T14:44:50.195Z,99.90
2019-04-25T14:47:22.074Z,99.90
2019-04-25T14:49:54.445Z,99.90
2019-04-25T14:52:26.507Z,99.90
2019-04-25T14:55:18.364Z,99.90
2019-04-25T14:57:49.988Z,99.90
2019-04-25T15:00:33.439Z,99.90
2019-04-25T15:03:05.937Z,99.90
2019-04-25T15:05:37.384Z,99.90
2019-04-25T15:08:09.744Z,99.90
2019-04-25T15:10:41.324Z,99.90
2019-04-25T15:13:13.084Z,99.90
2019-04-25T15:15:44.520Z,99.90
2019-04-25T15:18:16.893Z,99.90
2019-04-25T15:20:48.430Z,99.90
2019-04-25T15:23:39.337Z,99.90
2019-04-25T15:26:10.790Z,99.90
2019-04-25T15:28:42.166Z,99.90
2019-04-25T15:31:14.443Z,99.90
2019-04-25T15:33:46.703Z,99.90
2019-04-25T15:36:33.928Z,99.90
2019-04-25T15:39:41.751Z,99.90
2019-04-25T15:42:30.567Z,99.90
2019-04-25T15:45:21.446Z,99.90
2019-04-25T15:47:55.061Z,99.90
2019-04-25T15:50:26.491Z,99.90
2019-04-25T15:52:58.030Z,99.90
2019-04-25T15:55:31.191Z,99.90
2019-04-25T15:58:02.717Z,99.90
2019-04-25T16:00:37.150Z,99.90
2019-04-25T16:03:09.132Z,99.90
2019-04-25T16:05:40.527Z,99.90
2019-04-25T16:08:13.684Z,99.90
2019-04-25T16:10:45.146Z,99.90
2019-04-25T16:13:16.899Z,99.90
2019-04-25T16:15:48.503Z,99.90
2019-04-25T16:18:20.150Z,99.90
2019-04-25T16:20:51.990Z,99.90
2019-04-25T16:23:23.288Z,99.90
2019-04-25T16:25:54.718Z,99.90
2019-04-25T16:28:26.541Z,99.90
2019-04-25T16:30:59.268Z,99.90
2019-04-25T16:33:31.224Z,99.90
2019-04-25T16:36:04.022Z,99.90
2019-04-25T16:38:35.552Z,99.90
2019-04-25T16:41:07.240Z,99.90
2019-04-25T16:43:41.884Z,99.90
2019-04-25T16:46:15.452Z,99.90
2019-04-25T16:48:47.466Z,99.90
2019-04-25T16:51:19.478Z,99.90
2019-04-25T16:53:51.901Z,99.90
2019-04-25T16:56:23.558Z,99.90
2019-04-25T16:58:55.847Z,99.90
2019-04-25T17:01:27.403Z,99.90
2019-04-25T17:04:00.421Z,99.90
2019-04-25T17:06:33.862Z,99.90
2019-04-25T17:09:08.067Z,99.90
2019-04-25T17:11:41.747Z,99.90
2019-04-25T17:14:33.452Z,99.90
2019-04-25T17:17:20.418Z,99.90
2019-04-25T17:20:08.701Z,99.90
2019-04-25T17:22:40.345Z,99.90
2019-04-25T17:25:13.398Z,99.90
2019-04-25T17:27:45.946Z,99.90
2019-04-25T17:30:18.725Z,99.90
2019-04-25T17:33:15.113Z,99.90
2019-04-25T17:36:14.297Z,99.90
2019-04-25T17:38:53.479Z,99.90
2019-04-25T17:41:26.020Z,99.90
2019-04-25T17:44:00.981Z,99.90
2019-04-25T17:46:31.733Z,99.90
2019-04-25T17:49:04.127Z,99.90
2019-04-25T17:51:36.457Z,99.90
2019-04-25T17:54:09.027Z,99.90
2019-04-25T17:56:40.954Z,99.90
2019-04-25T17:59:12.381Z,99.90
2019-04-25T18:01:44.285Z,99.90
2019-04-25T18:04:16.957Z,99.90
2019-04-25T18:06:50.089Z,99.90
2019-04-25T18:09:21.105Z,99.90
2019-04-25T18:11:51.645Z,99.90
2019-04-25T18:14:23.215Z,99.90
2019-04-25T18:16:55.462Z,99.90
2019-04-25T18:19:35.112Z,99.90
2019-04-25T18:22:23.738Z,99.90
2019-04-25T18:25:29.461Z,99.90
2019-04-25T18:28:10.041Z,99.90
2019-04-25T18:30:41.228Z,99.90
2019-04-25T18:33:31.880Z,99.90
2019-04-25T18:36:37.393Z,99.90
2019-04-25T18:39:27.050Z,99.90
2019-04-25T18:42:08.211Z,99.90
2019-04-25T18:44:38.801Z,99.90
2019-04-25T18:47:10.088Z,99.90
2019-04-25T18:49:42.538Z,99.90
2019-04-25T18:52:31.047Z,99.90
2019-04-25T18:55:09.809Z,99.90
2019-04-25T18:57:45.405Z,99.90
2019-04-25T19:00:41.765Z,99.90
2019-04-25T19:03:32.436Z,99.90
2019-04-25T19:06:09.886Z,99.90
2019-04-25T19:08:41.375Z,99.90
2019-04-25T19:11:12.988Z,99.90
2019-04-25T19:13:45.273Z,99.90
2019-04-25T19:16:16.829Z,99.90
2019-04-25T19:18:48.359Z,99.90
2019-04-25T19:21:20.816Z,99.90
2019-04-25T19:23:54.137Z,99.90
2019-04-25T19:26:25.667Z,99.90
2019-04-25T19:28:57.829Z,99.90
2019-04-25T19:31:29.352Z,99.90
2019-04-25T19:34:00.951Z,99.90
2019-04-25T19:36:32.434Z,99.90
2019-04-25T19:39:05.351Z,99.90
2019-04-25T19:41:45.654Z,99.90
2019-04-25T19:44:25.194Z,99.90
2019-04-25T19:46:58.550Z,99.90
2019-04-25T19:49:31.315Z,99.90
2019-04-25T19:52:02.861Z,99.90
2019-04-25T19:54:34.309Z,99.90
2019-04-25T19:57:05.959Z,99.90
2019-04-25T19:59:37.432Z,99.90
2019-04-25T20:02:17.695Z,99.90
2019-04-25T20:04:56.930Z,99.90
2019-04-25T20:07:33.480Z,99.90
2019-04-25T20:10:26.721Z,99.90
2019-04-25T20:12:58.353Z,99.90
2019-04-25T20:15:30.116Z,99.90
2019-04-25T20:18:02.410Z,99.90
2019-04-25T20:20:34.801Z,99.90
2019-04-25T20:23:06.966Z,99.90
2019-04-25T20:25:39.330Z,99.90
2019-04-25T20:28:11.040Z,99.90
2019-04-25T20:30:42.574Z,99.90
2019-04-25T20:33:14.136Z,99.90
2019-04-25T20:35:46.414Z,99.90
2019-04-25T20:38:18.743Z,99.90
2019-04-25T20:40:50.367Z,99.90
2019-04-25T20:43:22.563Z,99.90
2019-04-25T20:45:56.528Z,99.90
2019-04-25T20:48:29.360Z,99.90
2019-04-25T20:51:00.787Z,99.90
2019-04-25T20:53:33.218Z,99.90
2019-04-25T20:56:04.871Z,99.90
2019-04-25T20:58:36.481Z,99.90
2019-04-25T21:01:08.827Z,99.90
2019-04-25T21:03:40.468Z,99.90
2019-04-25T21:06:20.615Z,99.90
2019-04-25T21:08:52.112Z,99.90
2019-04-25T21:11:23.519Z,99.90
2019-04-25T21:14:12.543Z,99.90
2019-04-25T21:16:58.605Z,99.90
2019-04-25T21:19:32.143Z,99.90
2019-04-25T21:22:04.200Z,99.90
2019-04-25T21:24:35.699Z,99.90
2019-04-25T21:27:08.114Z,99.90
2019-04-25T21:29:39.658Z,99.90
2019-04-25T21:32:11.169Z,99.90
2019-04-25T21:34:42.998Z,99.90
2019-04-25T21:37:15.359Z,99.90
2019-04-25T21:40:02.962Z,99.90
2019-04-25T21:42:42.731Z,99.90
2019-04-25T21:45:16.577Z,99.90
2019-04-25T21:47:48.387Z,99.90
2019-04-25T21:50:20.818Z,99.90
2019-04-25T21:52:52.740Z,99.90
2019-04-25T21:55:24.886Z,99.90
2019-04-25T21:57:56.558Z,99.90
2019-04-25T22:00:48.058Z,99.90
2019-04-25T22:03:21.549Z,99.90
2019-04-25T22:05:54.319Z,99.90
2019-04-25T22:08:26.394Z,99.90
2019-04-25T22:10:58.872Z,99.90
2019-04-25T22:13:30.607Z,99.90
2019-04-25T22:16:04.089Z,99.90
2019-04-25T22:18:36.792Z,99.90
2019-04-25T22:21:08.231Z,99.90
2019-04-25T22:23:40.899Z,99.90
2019-04-25T22:26:13.092Z,99.90
2019-04-25T22:28:44.851Z,99.90
2019-04-25T22:31:20.580Z,99.90
2019-04-25T22:34:16.884Z,99.90
2019-04-25T22:36:48.700Z,99.90
2019-04-25T22:39:20.204Z,99.90
2019-04-25T22:41:52.802Z,99.90
2019-04-25T22:44:25.752Z,99.90
2019-04-25T22:46:57.882Z,99.90
2019-04-25T22:49:29.429Z,99.90
2019-04-25T22:52:01.758Z,99.90
2019-04-25T22:54:34.692Z,99.90
2019-04-25T22:57:06.396Z,99.90
2019-04-25T22:59:38.161Z,99.90
2019-04-25T23:02:28.764Z,99.90
2019-04-25T23:05:34.718Z,99.90
2019-04-25T23:08:06.365Z,99.90
2019-04-25T23:10:38.023Z,99.90
2019-04-25T23:13:09.430Z,99.90
2019-04-25T23:15:41.798Z,99.90
2019-04-25T23:18:13.868Z,99.90
2019-04-25T23:20:45.768Z,99.90
2019-04-25T23:23:17.885Z,99.90
2019-04-25T23:26:14.144Z,99.90
2019-04-25T23:28:46.827Z,99.90
2019-04-25T23:31:25.303Z,99.90
2019-04-25T23:33:57.585Z,99.90
2019-04-25T23:36:29.092Z,99.90
2019-04-25T23:39:00.549Z,99.90
2019-04-25T23:41:33.956Z,99.90
2019-04-25T23:44:07.121Z,99.90
2019-04-25T23:46:39.222Z,99.90
2019-04-25T23:49:10.727Z,99.90
2019-04-25T23:51:43.443Z,99.90
2019-04-25T23:54:15.429Z,99.90
2019-04-25T23:56:46.929Z,99.90
2019-04-25T23:59:18.968Z,99.90
